Time;durP1;ratioP1;P1;durP2;ratioP2;P2;SDS_P1;SDS_P2;PMS_P1;PMS_P2;Temp;Humidity;BMP_temperature;BMP_pressure;BME280_temperature;BME280_humidity;BME280_pressure;Samples;Min_cycle;Max_cycle;Signal;HPM_P1;HPM_P2
2023/05/09 00:02:17;;;;;;;25.90;16.55;;;;;;;17.16;100.00;100778.50;8259981;28;20407;-59
2023/05/09 00:06:18;;;;;;;23.50;16.45;;;;;;;17.11;100.00;100779.00;8261102;28;20061;-59
2023/05/09 00:10:18;;;;;;;23.42;17.42;;;;;;;17.10;100.00;100779.19;8260394;28;20045;-60
2023/05/09 00:14:19;;;;;;;28.65;18.15;;;;;;;17.15;100.00;100787.72;8259964;28;20100;-60
2023/05/09 00:18:20;;;;;;;22.08;16.48;;;;;;;17.20;100.00;100786.16;8261531;28;20430;-60
2023/05/09 00:22:21;;;;;;;26.98;18.35;;;;;;;17.17;100.00;100788.41;8259649;28;20050;-60
2023/05/09 00:26:22;;;;;;;28.77;18.63;;;;;;;17.19;100.00;100778.13;8260927;28;20121;-59
2023/05/09 00:30:22;;;;;;;25.23;17.50;;;;;;;17.12;100.00;100771.69;8251368;28;20413;-59
2023/05/09 00:34:23;;;;;;;26.38;17.02;;;;;;;17.04;100.00;100771.69;8248034;28;20069;-59
2023/05/09 00:38:24;;;;;;;22.13;17.38;;;;;;;17.07;100.00;100763.16;8233245;28;20038;-60
2023/05/09 00:42:24;;;;;;;25.65;17.45;;;;;;;17.07;100.00;100763.16;8257232;28;20604;-59
2023/05/09 00:46:25;;;;;;;34.28;20.48;;;;;;;17.25;100.00;100747.38;8258749;28;20045;-58
2023/05/09 00:50:26;;;;;;;46.00;24.23;;;;;;;17.29;100.00;100748.69;8258613;28;20038;-59
2023/05/09 00:54:26;;;;;;;66.72;31.58;;;;;;;17.29;100.00;100743.25;8254737;28;20045;-59
2023/05/09 00:58:27;;;;;;;74.60;32.70;;;;;;;17.38;100.00;100744.91;8256452;28;20080;-59
2023/05/09 01:02:27;;;;;;;77.13;34.63;;;;;;;17.36;100.00;100736.88;8258287;28;20516;-59
2023/05/09 01:06:43;;;;;;;71.07;33.47;;;;;;;17.33;100.00;100733.69;8259833;28;20535;-59
2023/05/09 01:10:57;;;;;;;74.88;35.53;;;;;;;17.31;100.00;100733.00;8258794;28;20462;-59
2023/05/09 01:15:21;;;;;;;78.63;35.03;;;;;;;17.24;100.00;100724.69;8249795;28;20038;-59
2023/05/09 01:19:41;;;;;;;;;;;;;;;17.21;100.00;100726.91;8258813;28;20408;-60
2023/05/09 01:24:11;;;;;;;82.03;36.90;;;;;;;17.28;100.00;100719.69;8257498;28;19938;-61
2023/05/09 01:28:22;;;;;;;86.90;36.80;;;;;;;17.25;100.00;100706.38;8255800;28;20042;-60
2023/05/09 01:32:27;;;;;;;86.55;38.88;;;;;;;17.18;100.00;100710.88;8258072;28;20041;-60
2023/05/09 01:36:31;;;;;;;88.15;38.85;;;;;;;17.11;100.00;100705.25;8258653;28;20125;-61
2023/05/09 01:40:34;;;;;;;92.47;39.03;;;;;;;17.09;100.00;100709.19;8254868;28;20038;-60
2023/05/09 01:44:39;;;;;;;84.07;37.90;;;;;;;17.12;100.00;100706.97;8255609;28;20497;-61
2023/05/09 01:48:41;;;;;;;89.13;39.92;;;;;;;17.11;100.00;100705.25;8257141;28;20103;-60
2023/05/09 01:52:46;;;;;;;92.90;40.25;;;;;;;17.15;100.00;100703.03;8253728;28;20042;-60
2023/05/09 01:56:48;;;;;;;87.95;41.15;;;;;;;17.17;100.00;100693.59;8258287;28;20046;-60
2023/05/09 02:00:49;;;;;;;96.53;40.00;;;;;;;17.12;100.00;100684.25;8258219;28;20050;-60
2023/05/09 02:04:51;;;;;;;85.63;38.58;;;;;;;17.02;100.00;100684.47;8257506;28;20133;-60
2023/05/09 02:08:51;;;;;;;90.97;41.05;;;;;;;16.96;100.00;100696.09;8254682;28;20060;-61
2023/05/09 02:12:53;;;;;;;81.68;40.47;;;;;;;16.94;100.00;100697.31;8257566;28;20042;-61
2023/05/09 02:16:53;;;;;;;85.07;39.63;;;;;;;16.91;100.00;100692.19;8248234;28;20042;-60
2023/05/09 02:20:54;;;;;;;86.45;40.45;;;;;;;16.94;100.00;100686.38;8255960;28;20050;-60
2023/05/09 02:24:54;;;;;;;86.03;38.13;;;;;;;17.01;100.00;100687.38;8258133;28;20132;-60
2023/05/09 02:28:55;;;;;;;86.60;39.45;;;;;;;16.95;100.00;100682.59;8258152;28;20039;-60
2023/05/09 02:33:00;;;;;;;84.95;39.92;;;;;;;16.93;100.00;100684.69;8257904;28;20038;-60
2023/05/09 02:37:01;;;;;;;;;;;;;;;16.95;100.00;100682.59;8259844;28;20506;-59
2023/05/09 02:41:01;;;;;;;88.60;41.15;;;;;;;16.96;100.00;100676.13;8258808;28;20076;-60
2023/05/09 02:45:02;;;;;;;78.88;37.42;;;;;;;16.95;100.00;100666.22;8258408;28;20450;-59
2023/05/09 02:49:03;;;;;;;90.30;39.13;;;;;;;16.86;100.00;100664.56;8258039;28;20094;-59
2023/05/09 02:53:03;;;;;;;87.15;38.00;;;;;;;16.83;100.00;100654.84;8257469;28;20097;-59
2023/05/09 02:57:04;;;;;;;87.40;39.65;;;;;;;16.75;100.00;100651.31;8257931;28;20042;-61
2023/05/09 03:01:04;;;;;;;94.70;41.47;;;;;;;16.73;100.00;100651.47;8258385;28;20049;-60
2023/05/09 03:05:05;;;;;;;98.90;42.75;;;;;;;16.78;100.00;100657.28;8257618;28;20045;-60
2023/05/09 03:09:08;;;;;;;100.25;41.05;;;;;;;16.84;100.00;100652.97;8258676;28;20042;-60
2023/05/09 03:13:09;;;;;;;92.28;39.40;;;;;;;16.88;100.00;100643.38;8262884;28;20504;-60
2023/05/09 03:17:10;;;;;;;94.75;42.10;;;;;;;16.79;100.00;100644.44;8263811;28;20038;-60
2023/05/09 03:21:11;;;;;;;102.20;41.40;;;;;;;16.78;100.00;100654.53;8263373;28;20042;-60
2023/05/09 03:25:12;;;;;;;94.93;41.83;;;;;;;16.81;100.00;100650.59;8263065;28;20049;-60
2023/05/09 03:29:13;;;;;;;91.68;41.88;;;;;;;16.71;100.00;100648.06;8263381;28;20504;-60
2023/05/09 03:33:13;;;;;;;93.72;40.80;;;;;;;16.68;100.00;100642.13;8262292;28;20046;-60
2023/05/09 03:37:14;;;;;;;81.10;36.78;;;;;;;16.52;100.00;100632.09;8263332;28;20046;-60
2023/05/09 03:41:17;;;;;;;84.60;38.25;;;;;;;16.56;100.00;100633.44;8262546;28;20055;-61
2023/05/09 03:45:20;;;;;;;78.45;37.75;;;;;;;16.60;100.00;100631.22;8263522;28;20034;-60
2023/05/09 03:49:21;;;;;;;65.40;30.02;;;;;;;16.61;100.00;100625.59;8262907;28;20485;-61
2023/05/09 03:53:25;;;;;;;56.65;29.38;;;;;;;16.50;100.00;100622.41;8261402;28;20092;-60
2023/05/09 03:57:27;;;;;;;56.00;29.58;;;;;;;16.46;100.00;100615.56;8262924;28;20556;-60
2023/05/09 04:01:30;;;;;;;52.53;29.10;;;;;;;16.45;100.00;100612.00;8262193;28;20049;-61
2023/05/09 04:05:34;;;;;;;51.50;29.67;;;;;;;16.40;100.00;100599.88;8260028;28;20046;-60
2023/05/09 04:09:35;;;;;;;58.92;30.38;;;;;;;16.37;100.00;100601.06;8262347;28;20034;-60
2023/05/09 04:13:36;;;;;;;55.33;30.17;;;;;;;16.42;100.00;100597.81;8251293;28;20085;-60
2023/05/09 04:17:45;;;;;;;52.78;31.48;;;;;;;16.45;100.00;100587.44;8256553;28;20501;-61
2023/05/09 04:21:45;;;;;;;47.88;28.58;;;;;;;16.39;100.00;100595.44;8250524;28;20179;-60
2023/05/09 04:25:46;;;;;;;53.17;30.25;;;;;;;16.42;100.00;100593.22;8237019;28;20153;-60
2023/05/09 04:29:48;;;;;;;57.00;30.80;;;;;;;16.35;100.00;100591.38;8226843;28;20409;-60
2023/05/09 04:33:49;;;;;;;50.47;29.10;;;;;;;16.34;100.00;100597.84;8238366;28;20045;-61
2023/05/09 04:37:50;;;;;;;51.13;30.67;;;;;;;16.42;100.00;100595.09;8258906;28;20038;-60
2023/05/09 04:41:52;;;;;;;46.95;27.75;;;;;;;16.41;100.00;100596.13;8256732;28;20045;-61
2023/05/09 04:45:53;;;;;;;48.50;29.50;;;;;;;16.41;100.00;100596.13;8235598;28;20497;-60
2023/05/09 04:49:53;;;;;;;49.53;30.00;;;;;;;16.34;100.00;100595.97;8242764;28;20042;-59
2023/05/09 04:53:54;;;;;;;55.65;30.83;;;;;;;16.32;100.00;100583.53;8255791;28;20412;-60
2023/05/09 04:57:59;;;;;;;55.10;31.38;;;;;;;16.32;100.00;100569.91;8256731;28;20047;-60
2023/05/09 05:02:00;;;;;;;50.05;30.20;;;;;;;16.33;100.00;100577.91;8258007;28;20049;-60
2023/05/09 05:06:01;;;;;;;55.00;32.13;;;;;;;16.31;100.00;100568.22;8258419;28;20130;-60
2023/05/09 05:10:01;;;;;;;52.72;30.80;;;;;;;16.35;100.00;100567.66;8258161;28;20409;-60
2023/05/09 05:14:03;;;;;;;52.10;30.50;;;;;;;16.38;100.00;100575.47;8282053;28;20049;-60
2023/05/09 05:18:04;;;;;;;51.05;31.55;;;;;;;16.40;100.00;100567.13;8290333;28;20050;-56
2023/05/09 05:22:08;;;;;;;50.60;29.90;;;;;;;16.52;100.00;100555.69;8256850;28;20201;-56
2023/05/09 05:26:11;;;;;;;52.42;32.25;;;;;;;16.60;100.00;100546.59;8249480;28;20030;-56
2023/05/09 05:30:14;;;;;;;49.33;30.50;;;;;;;16.82;100.00;100551.25;8246543;28;20050;-56
2023/05/09 05:34:15;;;;;;;45.78;30.52;;;;;;;17.20;100.00;100550.31;8229128;28;20034;-56
2023/05/09 05:38:17;;;;;;;39.30;28.10;;;;;;;17.27;100.00;100540.34;8249813;28;20050;-60
2023/05/09 05:42:22;;;;;;;43.80;28.48;;;;;;;17.22;100.00;100553.72;8261261;28;20411;-60
2023/05/09 05:46:22;;;;;;;43.97;27.85;;;;;;;17.33;100.00;100545.91;8228963;28;20386;-60
2023/05/09 05:50:23;;;;;;;38.45;26.50;;;;;;;17.37;100.00;100551.88;8220542;28;20089;-59
2023/05/09 05:54:24;;;;;;;43.50;27.27;;;;;;;17.27;100.00;100534.91;8250382;28;20037;-59
2023/05/09 05:58:26;;;;;;;40.13;27.60;;;;;;;17.32;100.00;100533.31;8236631;28;20042;-60
2023/05/09 06:02:27;;;;;;;42.40;26.05;;;;;;;17.67;100.00;100523.63;8221597;28;20494;-60
2023/05/09 06:06:28;;;;;;;39.33;25.77;;;;;;;17.58;100.00;100527.47;8224668;28;20414;-60
2023/05/09 06:10:29;;;;;;;40.10;26.92;;;;;;;17.51;100.00;100527.34;8249780;28;20038;-60
2023/05/09 06:14:29;;;;;;;36.60;25.00;;;;;;;17.55;100.00;100517.78;8256222;28;20045;-60
2023/05/09 06:18:30;;;;;;;43.28;27.25;;;;;;;17.64;100.00;100515.78;8256870;28;20031;-60
2023/05/09 06:22:30;;;;;;;39.17;25.35;;;;;;;17.72;100.00;100506.66;8251254;28;20125;-60
2023/05/09 06:26:31;;;;;;;37.70;23.63;;;;;;;17.93;100.00;100502.13;8257442;28;20038;-60
2023/05/09 06:30:31;;;;;;;33.88;22.63;;;;;;;18.19;100.00;100505.25;8256509;28;20062;-60
2023/05/09 06:34:32;;;;;;;30.92;21.55;;;;;;;18.34;100.00;100497.88;8256525;28;20042;-60
2023/05/09 06:38:33;;;;;;;37.40;21.80;;;;;;;18.55;100.00;100492.50;8252316;28;20092;-60
2023/05/09 06:42:34;;;;;;;31.58;20.70;;;;;;;18.56;100.00;100490.59;8255731;28;20047;-60
2023/05/09 06:46:34;;;;;;;32.00;20.60;;;;;;;18.75;100.00;100485.34;8260785;28;20120;-61
2023/05/09 06:50:35;;;;;;;31.25;21.35;;;;;;;18.79;100.00;100486.66;8260562;28;20073;-60
2023/05/09 06:54:35;;;;;;;28.33;19.98;;;;;;;18.99;100.00;100475.91;8259484;28;20042;-61
2023/05/09 06:58:35;;;;;;;26.13;17.60;;;;;;;19.03;100.00;100469.84;8261679;28;20030;-60
2023/05/09 07:02:40;;;;;;;25.98;17.35;;;;;;;19.22;100.00;100466.41;8261783;28;20039;-60
2023/05/09 07:06:40;;;;;;;;;;;;;;;19.32;100.00;100456.03;8262192;28;20061;-60
2023/05/09 07:10:41;;;;;;;25.00;16.30;;;;;;;19.56;100.00;100457.47;8261667;28;19939;-60
2023/05/09 07:14:41;;;;;;;16.80;11.63;;;;;;;19.66;95.02;100451.59;8261165;28;20042;-60
2023/05/09 07:18:42;;;;;;;17.95;10.02;;;;;;;19.62;94.34;100450.31;8260527;28;20042;-60
2023/05/09 07:22:42;;;;;;;11.43;8.15;;;;;;;19.89;90.56;100441.22;8252859;28;20061;-60
2023/05/09 07:26:43;;;;;;;10.60;7.22;;;;;;;20.03;87.95;100437.50;8260888;28;20117;-60
2023/05/09 07:30:43;;;;;;;8.07;5.78;;;;;;;20.04;85.53;100433.69;8260155;28;20080;-60
2023/05/09 07:34:44;;;;;;;5.85;4.72;;;;;;;19.77;86.00;100434.59;8260585;28;20583;-61
2023/05/09 07:38:46;;;;;;;6.68;4.70;;;;;;;20.13;85.10;100432.53;8254361;28;20065;-60
2023/05/09 07:42:48;;;;;;;5.72;4.40;;;;;;;20.23;83.21;100428.34;8260338;28;20046;-60
2023/05/09 07:46:49;;;;;;;4.45;3.80;;;;;;;20.58;81.60;100435.44;8260114;28;20096;-58
2023/05/09 07:50:49;;;;;;;5.50;3.13;;;;;;;20.54;78.73;100417.69;8257196;28;20465;-58
2023/05/09 07:54:50;;;;;;;7.05;3.60;;;;;;;20.82;79.12;100409.25;8259706;28;20046;-58
2023/05/09 07:58:50;;;;;;;5.50;2.95;;;;;;;21.06;77.40;100404.06;8257251;28;20038;-58
2023/05/09 08:02:51;;;;;;;5.32;2.53;;;;;;;21.43;76.03;100401.72;8259401;28;20054;-57
2023/05/09 08:06:51;;;;;;;4.15;3.25;;;;;;;21.46;75.85;100388.34;8259056;28;20495;-57
2023/05/09 08:10:51;;;;;;;4.78;3.17;;;;;;;21.41;73.88;100385.44;8259323;28;20042;-60
2023/05/09 08:14:52;;;;;;;4.32;3.20;;;;;;;21.40;73.72;100383.72;8259813;28;20050;-60
2023/05/09 08:18:53;;;;;;;4.32;2.85;;;;;;;21.70;73.13;100384.94;8259171;28;20085;-60
2023/05/09 08:22:54;;;;;;;5.72;3.33;;;;;;;21.56;73.96;100365.91;8255027;28;20125;-58
2023/05/09 08:26:54;;;;;;;7.80;3.28;;;;;;;21.71;72.76;100366.53;8259427;28;20046;-58
2023/05/09 08:30:55;;;;;;;4.38;3.10;;;;;;;21.99;71.81;100372.59;8259099;28;20046;-58
2023/05/09 08:34:56;;;;;;;4.85;3.70;;;;;;;21.88;72.35;100360.34;8258975;28;20630;-57
2023/05/09 08:38:56;;;;;;;5.90;3.80;;;;;;;21.79;73.97;100356.16;8254746;28;20244;-57
2023/05/09 08:42:57;;;;;;;4.80;3.53;;;;;;;22.07;73.05;100342.91;8258505;28;20138;-60
2023/05/09 08:47:00;;;;;;;5.60;3.90;;;;;;;22.15;73.45;100350.91;8258745;28;20474;-61
2023/05/09 08:51:01;;;;;;;5.13;3.45;;;;;;;22.13;72.93;100341.16;8254502;28;20177;-60
2023/05/09 08:55:03;;;;;;;4.53;3.45;;;;;;;21.63;74.73;100320.81;8258455;28;20034;-60
2023/05/09 08:59:04;;;;;;;5.25;3.70;;;;;;;21.80;73.10;100323.97;8258008;28;20129;-61
2023/05/09 09:03:06;;;;;;;5.60;3.10;;;;;;;22.66;72.50;100326.88;8257402;28;20053;-60
2023/05/09 09:07:07;;;;;;;4.43;3.45;;;;;;;22.51;72.73;100323.59;8255911;28;20053;-60
2023/05/09 09:11:11;;;;;;;4.68;3.80;;;;;;;21.87;73.76;100320.13;8255298;28;20099;-60
2023/05/09 09:15:16;;;;;;;6.23;4.07;;;;;;;21.89;73.00;100315.22;8254510;28;20044;-60
2023/05/09 09:19:17;;;;;;;4.45;3.50;;;;;;;22.10;74.08;100303.91;8265498;28;20582;-60
2023/05/09 09:23:22;;;;;;;5.22;3.65;;;;;;;22.04;72.89;100310.28;8253211;28;20529;-60
2023/05/09 09:27:22;;;;;;;5.72;3.13;;;;;;;22.33;73.32;100289.56;8257018;28;20040;-60
2023/05/09 09:31:27;;;;;;;3.53;3.22;;;;;;;22.71;72.33;100291.22;8257286;28;20038;-61
2023/05/09 09:35:27;;;;;;;5.68;3.38;;;;;;;22.91;70.78;100291.88;8257200;28;20130;-60
2023/05/09 09:39:28;;;;;;;6.28;3.13;;;;;;;22.94;73.39;100290.63;8252521;28;20228;-59
2023/05/09 09:43:30;;;;;;;6.47;3.58;;;;;;;22.78;70.72;100289.25;8256294;28;20050;-59
2023/05/09 09:47:31;;;;;;;4.88;3.20;;;;;;;22.60;71.77;100272.66;8257145;28;20117;-60
2023/05/09 09:51:33;;;;;;;6.20;3.28;;;;;;;22.64;72.01;100270.28;8252890;28;20031;-59
2023/05/09 09:55:34;;;;;;;6.13;3.47;;;;;;;23.01;70.62;100259.16;8256966;28;20486;-59
2023/05/09 09:59:35;;;;;;;8.65;3.22;;;;;;;23.10;72.00;100260.53;8256523;28;20511;-59
2023/05/09 10:03:37;;;;;;;8.38;3.28;;;;;;;23.04;70.36;100247.66;8255430;28;20417;-59
2023/05/09 10:07:37;;;;;;;5.18;2.92;;;;;;;22.43;71.93;100254.09;8252982;28;20034;-59
2023/05/09 10:11:38;;;;;;;4.15;2.83;;;;;;;23.03;71.72;100234.91;8255992;28;20440;-59
2023/05/09 10:15:40;;;;;;;5.20;2.80;;;;;;;23.41;69.38;100236.66;8254854;28;20042;-59
2023/05/09 10:19:44;;;;;;;5.90;3.10;;;;;;;23.06;70.16;100219.84;8259660;28;20457;-59
2023/05/09 10:23:48;;;;;;;4.28;2.80;;;;;;;22.79;72.29;100216.53;8258812;28;20050;-59
2023/05/09 10:27:52;;;;;;;;;;;;;;;22.68;72.99;100211.75;8263331;28;20045;-60
2023/05/09 10:31:58;;;;;;;5.32;3.63;;;;;;;22.54;72.14;100212.91;8262668;28;19924;-59
2023/05/09 10:36:00;;;;;;;4.00;2.97;;;;;;;22.66;73.71;100204.78;8261979;28;20081;-59
2023/05/09 10:40:03;;;;;;;6.03;3.38;;;;;;;23.27;71.72;100204.78;8257983;28;20045;-59
2023/05/09 10:44:03;;;;;;;5.75;2.75;;;;;;;23.35;72.89;100194.28;8261128;28;20042;-59
2023/05/09 10:48:07;;;;;;;4.45;3.40;;;;;;;23.07;71.79;100175.50;8262357;28;20408;-59
2023/05/09 10:52:07;;;;;;;3.08;2.78;;;;;;;23.26;72.33;100179.09;8258208;28;20069;-59
2023/05/09 10:56:08;;;;;;;3.40;2.80;;;;;;;23.75;68.63;100173.34;8262252;28;20073;-59
2023/05/09 11:00:10;;;;;;;3.70;2.45;;;;;;;23.48;68.32;100166.50;8261001;28;20064;-61
2023/05/09 11:04:13;;;;;;;5.38;3.22;;;;;;;24.35;67.08;100163.09;8260369;28;20042;-60
2023/05/09 11:08:25;;;;;;;3.65;2.22;;;;;;;24.90;64.80;100156.16;8257681;28;20057;-60
2023/05/09 11:12:26;;;;;;;4.13;2.20;;;;;;;26.94;58.63;100153.97;8261058;28;20038;-60
2023/05/09 11:16:26;;;;;;;6.47;2.13;;;;;;;26.38;58.55;100143.94;8261264;28;20068;-60
2023/05/09 11:20:28;;;;;;;3.00;1.73;;;;;;;26.04;60.53;100142.25;8259925;28;20038;-61
2023/05/09 11:24:31;;;;;;;6.32;2.28;;;;;;;26.84;58.24;100138.88;8255463;28;20061;-61
2023/05/09 11:28:35;;;;;;;3.45;2.33;;;;;;;26.68;57.59;100131.41;8257737;28;20555;-60
2023/05/09 11:32:54;;;;;;;3.38;2.08;;;;;;;25.15;61.37;100131.00;8259348;28;20065;-60
2023/05/09 11:37:08;;;;;;;4.13;2.08;;;;;;;25.13;61.42;100120.19;8249491;28;20457;-59
2023/05/09 11:41:09;;;;;;;4.07;2.03;;;;;;;24.73;62.56;100122.06;8258218;28;20536;-60
2023/05/09 11:45:11;;;;;;;2.63;2.00;;;;;;;24.95;62.30;100109.28;8260665;28;20460;-60
2023/05/09 11:49:13;;;;;;;3.20;1.83;;;;;;;24.42;64.00;100100.25;8260360;28;20046;-60
2023/05/09 11:53:13;;;;;;;4.07;1.77;;;;;;;24.55;63.65;100100.03;8256228;28;20050;-61
2023/05/09 11:57:16;;;;;;;3.07;2.00;;;;;;;24.78;61.86;100094.50;8260347;28;20093;-60
2023/05/09 12:01:17;;;;;;;2.15;1.95;;;;;;;24.13;64.28;100088.25;8259318;28;20289;-61
2023/05/09 12:05:19;;;;;;;3.80;1.80;;;;;;;24.14;63.79;100072.50;8252090;28;20500;-60
2023/05/09 12:09:21;;;;;;;5.40;2.45;;;;;;;24.09;65.19;100067.69;8247348;28;20101;-61
2023/05/09 12:13:21;;;;;;;4.88;2.63;;;;;;;24.28;63.67;100057.38;8227354;28;20069;-61
2023/05/09 12:17:22;;;;;;;3.17;2.47;;;;;;;24.19;64.60;100058.81;8226952;28;20043;-61
2023/05/09 12:21:22;;;;;;;3.38;2.20;;;;;;;23.80;65.39;100059.44;8230434;28;20404;-60
2023/05/09 12:25:22;;;;;;;3.13;2.05;;;;;;;23.38;66.85;100066.03;8259524;28;20038;-60
2023/05/09 12:29:24;;;;;;;3.28;2.47;;;;;;;23.47;66.75;100048.91;8259542;28;20042;-60
2023/05/09 12:33:25;;;;;;;5.05;2.25;;;;;;;23.43;65.74;100036.69;8255279;28;20034;-60
2023/05/09 12:37:26;;;;;;;4.07;2.40;;;;;;;23.38;69.11;100036.53;8287314;28;20034;-60
2023/05/09 12:41:28;;;;;;;6.15;2.40;;;;;;;23.17;67.12;100032.34;8239657;28;20114;-60
2023/05/09 12:45:31;;;;;;;2.63;2.42;;;;;;;23.17;68.49;100032.34;8254847;28;20034;-60
2023/05/09 12:49:35;;;;;;;4.80;2.53;;;;;;;23.10;67.95;100020.59;8258802;28;20405;-60
2023/05/09 12:53:39;;;;;;;3.28;2.47;;;;;;;23.04;67.38;100016.00;8249767;28;20059;-60
2023/05/09 12:57:40;;;;;;;3.97;2.90;;;;;;;23.16;68.35;100013.28;8270962;28;20065;-60
2023/05/09 13:01:41;;;;;;;3.05;2.00;;;;;;;23.28;67.88;100003.16;8257022;28;20277;-60
2023/05/09 13:05:41;;;;;;;4.28;2.42;;;;;;;23.46;66.13;100002.25;8257862;28;20035;-60
2023/05/09 13:09:57;;;;;;;2.65;2.00;;;;;;;23.45;65.28;100000.56;8252663;28;20045;-60
2023/05/09 13:13:57;;;;;;;2.67;2.00;;;;;;;23.55;64.36;100000.81;8257155;28;20520;-60
2023/05/09 13:17:58;;;;;;;2.17;1.98;;;;;;;23.63;65.75;99992.22;8257887;28;20527;-60
2023/05/09 13:21:58;;;;;;;2.70;2.03;;;;;;;23.48;65.80;99989.06;8253331;28;20497;-60
2023/05/09 13:25:58;;;;;;;2.17;1.67;;;;;;;23.17;66.96;99982.69;8257166;28;20046;-60
2023/05/09 13:29:59;;;;;;;3.28;2.25;;;;;;;23.23;68.11;99991.13;8257063;28;20320;-60
2023/05/09 13:33:59;;;;;;;3.22;2.00;;;;;;;23.16;69.85;99980.19;8254079;28;20035;-60
2023/05/09 13:38:00;;;;;;;5.47;2.67;;;;;;;22.72;72.22;99984.19;8254061;28;20050;-61
2023/05/09 13:42:01;;;;;;;10.55;4.10;;;;;;;21.55;80.93;100001.88;8248120;28;20137;-61
2023/05/09 13:46:02;;;;;;;11.43;5.65;;;;;;;20.81;94.30;99998.13;8287176;28;20034;-60
2023/05/09 13:50:02;;;;;;;10.55;8.20;;;;;;;20.10;100.00;99989.03;8256367;28;20040;-60
2023/05/09 13:54:07;;;;;;;11.00;9.10;;;;;;;19.67;100.00;99989.75;8233244;28;20049;-60
2023/05/09 13:58:07;;;;;;;;;;;;;;;19.45;100.00;100006.41;8254285;28;20058;-60
2023/05/09 14:02:09;;;;;;;17.17;12.03;;;;;;;19.37;100.00;100003.88;8253675;28;19921;-60
2023/05/09 14:06:12;;;;;;;12.68;10.35;;;;;;;19.25;100.00;100000.03;8256952;28;20054;-61
2023/05/09 14:10:12;;;;;;;14.68;10.07;;;;;;;19.28;100.00;99994.16;8256079;28;20042;-61
2023/05/09 14:14:13;;;;;;;13.20;9.40;;;;;;;19.35;100.00;99989.53;8257701;28;20043;-60
2023/05/09 14:18:13;;;;;;;10.45;8.80;;;;;;;19.33;100.00;99991.63;8256739;28;20076;-59
2023/05/09 14:22:15;;;;;;;9.30;8.40;;;;;;;19.29;100.00;99982.16;8250220;28;20121;-59
2023/05/09 14:26:16;;;;;;;10.57;9.57;;;;;;;19.42;100.00;99976.66;8248027;28;20100;-59
2023/05/09 14:30:16;;;;;;;12.07;10.32;;;;;;;19.35;100.00;99978.56;8245096;28;20472;-59
2023/05/09 14:34:16;;;;;;;12.68;10.43;;;;;;;19.22;100.00;99970.28;8247624;28;20046;-59
2023/05/09 14:38:17;;;;;;;12.18;10.88;;;;;;;19.32;100.00;99968.03;8255070;28;20259;-59
2023/05/09 14:42:18;;;;;;;14.23;11.38;;;;;;;19.45;100.00;99970.75;8253540;28;20046;-59
2023/05/09 14:46:19;;;;;;;13.10;11.48;;;;;;;19.50;100.00;99956.44;8255276;28;20038;-60
2023/05/09 14:50:20;;;;;;;12.00;10.05;;;;;;;19.27;100.00;99959.56;8246166;28;20494;-59
2023/05/09 14:54:21;;;;;;;12.55;11.05;;;;;;;19.33;100.00;99956.00;8221518;28;20122;-59
2023/05/09 14:58:22;;;;;;;14.02;9.82;;;;;;;19.28;100.00;99949.47;8228210;28;20039;-59
2023/05/09 15:02:22;;;;;;;10.55;9.45;;;;;;;19.16;100.00;99945.63;8271914;28;20042;-59
2023/05/09 15:06:23;;;;;;;12.02;9.18;;;;;;;19.28;100.00;99944.00;8285896;28;20038;-59
2023/05/09 15:10:23;;;;;;;9.82;8.82;;;;;;;19.13;100.00;99940.56;8256218;28;20104;-59
2023/05/09 15:14:24;;;;;;;11.43;8.88;;;;;;;19.21;100.00;99932.13;8249575;28;20041;-59
2023/05/09 15:18:27;;;;;;;11.60;8.57;;;;;;;19.30;100.00;99926.25;8235587;28;20387;-59
2023/05/09 15:22:32;;;;;;;10.27;9.13;;;;;;;19.25;100.00;99917.78;8250991;28;20448;-59
2023/05/09 15:26:33;;;;;;;9.85;8.88;;;;;;;19.23;100.00;99919.06;8260865;28;20390;-59
2023/05/09 15:30:34;;;;;;;10.70;9.07;;;;;;;19.25;100.00;99916.97;8260593;28;20098;-59
2023/05/09 15:34:35;;;;;;;10.40;8.70;;;;;;;19.24;100.00;99905.16;8258958;28;20041;-59
2023/05/09 15:38:35;;;;;;;10.30;6.85;;;;;;;19.11;100.00;99899.66;8249826;28;20555;-59
2023/05/09 15:42:37;;;;;;;7.28;5.90;;;;;;;19.11;100.00;99898.81;8247816;28;20073;-59
2023/05/09 15:46:38;;;;;;;7.07;5.75;;;;;;;19.18;100.00;99894.16;8260500;28;20640;-59
2023/05/09 15:50:40;;;;;;;4.63;3.80;;;;;;;19.05;100.00;99881.34;8256040;28;20042;-59
2023/05/09 15:54:43;;;;;;;3.53;3.22;;;;;;;18.87;100.00;99889.31;8256597;28;20061;-59
2023/05/09 15:58:44;;;;;;;4.35;3.15;;;;;;;18.79;100.00;99884.03;8251653;28;20133;-59
2023/05/09 16:02:45;;;;;;;4.15;3.70;;;;;;;18.73;100.00;99889.53;8253491;28;20092;-59
2023/05/09 16:06:46;;;;;;;5.25;3.80;;;;;;;18.77;100.00;99880.69;8255089;28;20109;-59
2023/05/09 16:10:47;;;;;;;4.13;3.70;;;;;;;18.69;100.00;99872.66;8260318;28;20053;-59
2023/05/09 16:14:48;;;;;;;7.65;4.18;;;;;;;18.78;100.00;99874.13;8275080;28;20128;-59
2023/05/09 16:18:48;;;;;;;5.20;3.92;;;;;;;18.76;100.00;99876.22;8258778;28;20077;-59
2023/05/09 16:22:49;;;;;;;5.97;4.43;;;;;;;18.75;100.00;99874.56;8250740;28;20116;-60
2023/05/09 16:26:49;;;;;;;5.82;4.50;;;;;;;18.75;100.00;99860.88;8240053;28;20049;-59
2023/05/09 16:30:50;;;;;;;7.30;4.82;;;;;;;18.69;100.00;99872.66;8258772;28;20124;-60
2023/05/09 16:34:50;;;;;;;6.97;4.78;;;;;;;18.64;100.00;99869.72;8221369;28;20067;-60
2023/05/09 16:38:51;;;;;;;5.05;4.53;;;;;;;18.75;100.00;99860.88;8236091;28;20053;-60
2023/05/09 16:42:52;;;;;;;6.97;4.90;;;;;;;18.69;100.00;99861.69;8251287;28;20464;-60
2023/05/09 16:46:53;;;;;;;7.80;4.68;;;;;;;18.52;100.00;99856.81;8252749;28;20038;-59
2023/05/09 16:50:53;;;;;;;6.60;5.00;;;;;;;18.42;100.00;99859.94;8236278;28;20034;-59
2023/05/09 16:54:54;;;;;;;6.55;5.03;;;;;;;18.48;100.00;99852.81;8252100;28;20042;-59
2023/05/09 16:58:54;;;;;;;6.65;4.40;;;;;;;18.25;100.00;99853.16;8253045;28;20572;-60
2023/05/09 17:02:54;;;;;;;5.30;4.25;;;;;;;18.20;100.00;99860.31;8255158;28;20055;-59
2023/05/09 17:06:55;;;;;;;5.88;3.30;;;;;;;17.97;100.00;99866.09;8255085;28;20039;-60
2023/05/09 17:10:56;;;;;;;2.97;1.77;;;;;;;17.66;100.00;99865.75;8234703;28;20112;-59
2023/05/09 17:14:57;;;;;;;1.40;1.30;;;;;;;17.56;100.00;99870.69;8222105;28;20130;-59
2023/05/09 17:18:57;;;;;;;2.50;0.90;;;;;;;17.54;100.00;99864.63;8228880;28;20038;-59
2023/05/09 17:22:57;;;;;;;3.40;0.95;;;;;;;17.45;100.00;99861.16;8244044;28;20050;-59
2023/05/09 17:26:58;;;;;;;1.95;1.10;;;;;;;17.47;100.00;99852.78;8247812;28;20039;-59
2023/05/09 17:30:59;;;;;;;1.40;0.70;;;;;;;17.51;100.00;99846.69;8256887;28;20415;-59
2023/05/09 17:34:59;;;;;;;1.50;0.90;;;;;;;17.29;100.00;99849.66;8270796;28;20046;-59
2023/05/09 17:39:00;;;;;;;1.23;0.80;;;;;;;17.15;100.00;99853.38;8251236;28;20130;-59
2023/05/09 17:43:00;;;;;;;2.58;0.70;;;;;;;17.19;100.00;99843.72;8252368;28;20497;-59
2023/05/09 17:47:01;;;;;;;7.97;0.70;;;;;;;17.14;100.00;99851.69;8237651;28;20508;-59
2023/05/09 17:51:02;;;;;;;2.25;0.85;;;;;;;17.12;100.00;99848.31;8251290;28;20070;-59
2023/05/09 17:55:02;;;;;;;1.33;1.00;;;;;;;17.08;100.00;99847.03;8253495;28;20042;-59
2023/05/09 17:59:03;;;;;;;3.85;1.30;;;;;;;17.09;100.00;99837.78;8240710;28;20038;-59
2023/05/09 18:03:04;;;;;;;3.97;0.93;;;;;;;16.99;100.00;99842.75;8253815;28;20125;-59
2023/05/09 18:07:04;;;;;;;2.58;1.17;;;;;;;16.99;100.00;99837.28;8253501;28;20034;-59
2023/05/09 18:11:05;;;;;;;3.30;1.30;;;;;;;17.00;100.00;99845.28;8253876;28;20042;-59
2023/05/09 18:15:06;;;;;;;2.72;1.20;;;;;;;16.95;100.00;99846.91;8252602;28;20042;-59
2023/05/09 18:19:07;;;;;;;5.28;1.83;;;;;;;16.87;100.00;99849.78;8252651;28;20046;-59
2023/05/09 18:23:07;;;;;;;3.15;2.03;;;;;;;16.92;100.00;99842.69;8252692;28;20116;-59
2023/05/09 18:27:07;;;;;;;4.65;2.05;;;;;;;16.88;100.00;99841.41;8252258;28;20042;-59
2023/05/09 18:31:10;;;;;;;2.55;1.83;;;;;;;16.93;100.00;99841.63;8250901;28;20485;-59